createdAt,value
2023-05-15T00:00:24.266Z,12.85
2023-05-15T00:02:53.397Z,12.83
2023-05-15T00:05:21.842Z,12.86
2023-05-15T00:07:50.140Z,12.76
2023-05-15T00:10:18.338Z,12.83
2023-05-15T00:12:46.574Z,12.86
2023-05-15T00:15:14.746Z,12.87
2023-05-15T00:17:42.951Z,12.84
2023-05-15T00:20:12.658Z,12.76
2023-05-15T00:22:40.906Z,12.87
2023-05-15T00:25:09.703Z,12.93
2023-05-15T00:27:38.724Z,12.89
2023-05-15T00:30:07.776Z,12.84
2023-05-15T00:32:36.022Z,12.92
2023-05-15T00:35:05.568Z,12.88
2023-05-15T00:37:33.700Z,12.98
2023-05-15T00:40:01.810Z,12.91
2023-05-15T00:42:31.377Z,12.92
2023-05-15T00:45:02.819Z,13.08
2023-05-15T00:47:31.616Z,12.92
2023-05-15T00:50:00.657Z,12.95
2023-05-15T00:52:30.465Z,12.94
2023-05-15T00:54:58.608Z,12.79
2023-05-15T00:57:27.971Z,12.87
2023-05-15T00:59:57.620Z,12.84
2023-05-15T01:02:25.943Z,12.88
2023-05-15T01:04:54.330Z,12.87
2023-05-15T01:07:22.516Z,12.99
2023-05-15T01:09:54.194Z,12.88
2023-05-15T01:12:27.236Z,12.94
2023-05-15T01:14:55.377Z,12.95
2023-05-15T01:17:24.403Z,13.04
2023-05-15T01:19:52.969Z,12.86
2023-05-15T01:23:15.246Z,13.03
2023-05-15T01:25:47.675Z,13.01
2023-05-15T01:28:24.272Z,12.99
2023-05-15T01:30:56.723Z,12.86
2023-05-15T01:33:31.312Z,12.86
2023-05-15T01:36:18.909Z,12.85
2023-05-15T01:38:52.262Z,12.82
2023-05-15T01:41:30.964Z,12.88
2023-05-15T01:44:18.381Z,12.89
2023-05-15T01:46:51.950Z,12.80
2023-05-15T01:49:26.925Z,12.84
2023-05-15T01:52:35.121Z,12.79
2023-05-15T01:55:06.461Z,12.79
2023-05-15T01:57:36.271Z,12.71
2023-05-15T02:00:05.741Z,12.71
2023-05-15T02:02:34.186Z,12.64
2023-05-15T02:05:03.842Z,12.69
2023-05-15T02:07:34.124Z,12.70
2023-05-15T02:10:03.888Z,12.77
2023-05-15T02:12:32.923Z,12.81
2023-05-15T02:15:04.437Z,12.76
2023-05-15T02:17:32.662Z,12.78
2023-05-15T02:20:00.852Z,12.76
2023-05-15T02:22:28.998Z,12.79
2023-05-15T02:24:57.167Z,12.69
2023-05-15T02:27:29.133Z,12.60
2023-05-15T02:30:33.302Z,12.65
2023-05-15T02:33:37.913Z,12.77
2023-05-15T02:36:09.609Z,12.66
2023-05-15T02:38:56.895Z,12.59
2023-05-15T02:41:25.958Z,12.52
2023-05-15T02:43:56.722Z,12.55
2023-05-15T02:46:25.750Z,12.59
2023-05-15T02:48:55.441Z,12.68
2023-05-15T02:51:24.488Z,12.52
2023-05-15T02:53:52.829Z,12.56
2023-05-15T02:56:21.678Z,12.64
2023-05-15T02:58:49.882Z,12.79
2023-05-15T03:01:18.950Z,12.62
2023-05-15T03:03:47.912Z,12.47
2023-05-15T03:06:16.829Z,12.69
2023-05-15T03:08:45.320Z,12.70
2023-05-15T03:11:14.263Z,12.81
2023-05-15T03:13:43.415Z,12.77
2023-05-15T03:16:11.618Z,12.71
2023-05-15T03:18:39.810Z,12.70
2023-05-15T03:21:08.777Z,12.63
2023-05-15T03:23:38.001Z,12.57
2023-05-15T03:26:06.423Z,12.58
2023-05-15T03:28:34.611Z,12.71
2023-05-15T03:31:05.034Z,12.57
2023-05-15T03:33:33.167Z,12.80
2023-05-15T03:36:02.132Z,12.72
2023-05-15T03:38:30.278Z,12.77
2023-05-15T03:40:58.477Z,12.71
2023-05-15T03:43:26.646Z,12.84
2023-05-15T03:45:55.832Z,12.79
2023-05-15T03:48:24.804Z,13.03
2023-05-15T03:50:53.223Z,12.93
2023-05-15T03:53:22.166Z,12.84
2023-05-15T03:55:50.520Z,12.87
2023-05-15T03:58:19.468Z,13.00
2023-05-15T04:00:47.620Z,13.04
2023-05-15T04:03:15.935Z,13.17
2023-05-15T04:05:44.419Z,13.12
2023-05-15T04:08:12.687Z,13.42
2023-05-15T04:10:40.856Z,13.35
2023-05-15T04:13:09.845Z,13.27
2023-05-15T04:15:38.787Z,13.31
2023-05-15T04:18:06.928Z,13.33
2023-05-15T04:20:35.970Z,13.22
2023-05-15T04:23:07.261Z,13.08
2023-05-15T04:25:35.504Z,13.18
2023-05-15T04:28:03.840Z,13.09
2023-05-15T04:30:32.007Z,13.11
2023-05-15T04:33:00.280Z,13.03
2023-05-15T04:35:28.543Z,13.16
2023-05-15T04:37:56.834Z,13.11
2023-05-15T04:40:25.034Z,13.16
2023-05-15T04:42:53.210Z,13.14
2023-05-15T04:45:21.662Z,13.18
2023-05-15T04:47:49.898Z,13.16
2023-05-15T04:50:18.111Z,13.12
2023-05-15T04:52:47.059Z,13.12
2023-05-15T04:55:15.247Z,13.21
2023-05-15T04:57:43.430Z,13.27
2023-05-15T05:00:12.568Z,13.17
2023-05-15T05:02:41.087Z,13.24
2023-05-15T05:05:09.939Z,13.23
2023-05-15T05:07:38.171Z,13.08
2023-05-15T05:10:08.265Z,13.17
2023-05-15T05:12:36.498Z,13.12
2023-05-15T05:15:05.418Z,13.12
2023-05-15T05:17:33.628Z,13.25
2023-05-15T05:20:01.849Z,13.34
2023-05-15T05:22:31.124Z,13.25
2023-05-15T05:24:59.351Z,13.29
2023-05-15T05:27:28.003Z,13.34
2023-05-15T05:29:56.239Z,13.33
2023-05-15T05:32:24.814Z,13.37
2023-05-15T05:34:53.832Z,13.32
2023-05-15T05:37:22.785Z,13.30
2023-05-15T05:39:50.944Z,13.25
2023-05-15T05:42:19.079Z,13.17
2023-05-15T05:44:47.330Z,13.22
2023-05-15T05:47:16.678Z,13.11
2023-05-15T05:49:48.246Z,13.23
2023-05-15T05:52:16.949Z,13.19
2023-05-15T05:54:46.608Z,13.25
2023-05-15T05:57:15.856Z,13.31
2023-05-15T05:59:44.117Z,13.57
2023-05-15T06:02:13.654Z,13.56
2023-05-15T06:04:41.871Z,13.49
2023-05-15T06:07:11.130Z,13.62
2023-05-15T06:09:39.372Z,13.71
2023-05-15T06:12:08.626Z,13.52
2023-05-15T06:14:37.654Z,13.36
2023-05-15T06:17:06.112Z,13.36
2023-05-15T06:19:34.367Z,13.41
2023-05-15T06:22:02.629Z,13.52
2023-05-15T06:24:31.845Z,13.51
2023-05-15T06:27:00.304Z,13.51
2023-05-15T06:29:29.227Z,13.60
2023-05-15T06:31:57.537Z,13.58
2023-05-15T06:34:26.506Z,13.52
2023-05-15T06:36:55.468Z,13.54
2023-05-15T06:39:23.746Z,13.52
2023-05-15T06:41:58.209Z,13.53
2023-05-15T06:44:31.573Z,13.53
2023-05-15T06:47:00.126Z,13.60
2023-05-15T06:49:29.290Z,13.70
2023-05-15T06:51:57.587Z,13.88
2023-05-15T06:54:26.548Z,13.82
2023-05-15T06:56:54.754Z,13.80
2023-05-15T06:59:23.771Z,13.80
2023-05-15T07:01:52.055Z,13.96
2023-05-15T07:04:20.328Z,14.00
2023-05-15T07:06:49.386Z,14.01
2023-05-15T07:09:18.407Z,13.97
2023-05-15T07:11:47.463Z,14.03
2023-05-15T07:14:15.711Z,14.34
2023-05-15T07:16:45.863Z,14.22
2023-05-15T07:19:16.897Z,14.05
2023-05-15T07:21:45.108Z,14.11
2023-05-15T07:24:14.065Z,13.94
2023-05-15T07:26:50.615Z,14.00
2023-05-15T07:29:26.623Z,13.98
2023-05-15T07:31:55.742Z,14.32
2023-05-15T07:34:24.246Z,14.63
2023-05-15T07:36:52.428Z,14.85
2023-05-15T07:39:21.530Z,15.02
2023-05-15T07:41:49.766Z,14.84
2023-05-15T07:44:18.704Z,14.63
2023-05-15T07:46:47.080Z,14.55
2023-05-15T07:49:16.096Z,14.55
2023-05-15T07:51:46.754Z,14.77
2023-05-15T07:54:14.892Z,14.85
2023-05-15T07:56:43.044Z,14.79
2023-05-15T07:59:11.297Z,14.89
2023-05-15T08:01:40.330Z,15.27
2023-05-15T08:04:09.801Z,15.00
2023-05-15T08:06:38.854Z,15.01
2023-05-15T08:09:06.994Z,14.83
2023-05-15T08:11:36.269Z,14.93
2023-05-15T08:14:04.546Z,15.11
2023-05-15T08:16:32.913Z,15.70
2023-05-15T08:19:05.002Z,16.35
2023-05-15T08:21:36.168Z,16.58
2023-05-15T08:24:05.577Z,16.36
2023-05-15T08:26:33.725Z,16.42
2023-05-15T08:29:01.850Z,16.41
2023-05-15T08:31:30.763Z,16.10
2023-05-15T08:33:58.920Z,16.18
2023-05-15T08:36:28.040Z,16.43
2023-05-15T08:38:56.304Z,16.37
2023-05-15T08:41:40.491Z,16.15
2023-05-15T08:44:11.360Z,16.34
2023-05-15T08:46:40.025Z,16.73
2023-05-15T08:49:21.524Z,16.79
2023-05-15T08:51:49.789Z,16.45
2023-05-15T08:54:19.057Z,16.53
2023-05-15T08:56:47.675Z,16.85
2023-05-15T08:59:15.934Z,17.00
2023-05-15T09:01:44.244Z,17.10
2023-05-15T09:04:12.712Z,17.46
2023-05-15T09:06:42.164Z,17.34
2023-05-15T09:09:13.714Z,17.46
2023-05-15T09:11:46.668Z,17.55
2023-05-15T09:14:14.890Z,18.02
2023-05-15T09:16:43.535Z,18.26
2023-05-15T09:19:12.842Z,18.08
2023-05-15T09:21:41.122Z,17.88
2023-05-15T09:24:21.770Z,17.72
2023-05-15T09:27:08.543Z,17.65
2023-05-15T09:29:38.754Z,17.67
2023-05-15T09:32:10.608Z,18.28
2023-05-15T09:34:42.420Z,18.02
2023-05-15T09:37:28.099Z,17.95
2023-05-15T09:39:56.461Z,17.85
2023-05-15T09:42:24.971Z,17.75
2023-05-15T09:44:53.157Z,18.48
2023-05-15T09:47:21.535Z,18.24
2023-05-15T09:49:49.468Z,18.52
2023-05-15T09:52:19.429Z,18.78
2023-05-15T09:54:50.115Z,18.68
2023-05-15T09:57:23.599Z,18.52
2023-05-15T09:59:51.872Z,18.13
2023-05-15T10:02:32.754Z,17.75
2023-05-15T10:05:01.625Z,17.42
2023-05-15T10:07:35.840Z,17.36
2023-05-15T10:10:06.445Z,17.27
2023-05-15T10:12:36.851Z,17.22
2023-05-15T10:15:05.363Z,17.20
2023-05-15T10:17:36.368Z,17.16
2023-05-15T10:20:07.304Z,17.18
2023-05-15T10:22:38.833Z,17.46
2023-05-15T10:25:19.142Z,17.44
2023-05-15T10:27:48.334Z,17.59
2023-05-15T10:30:19.606Z,17.74
2023-05-15T10:32:49.882Z,17.83
2023-05-15T10:35:18.682Z,18.03
2023-05-15T10:37:49.272Z,17.95
2023-05-15T10:40:18.355Z,18.09
2023-05-15T10:42:47.981Z,18.19
2023-05-15T10:45:16.884Z,18.13
2023-05-15T10:47:46.400Z,18.15
2023-05-15T10:50:15.743Z,18.08
2023-05-15T10:52:43.974Z,17.78
2023-05-15T10:55:17.899Z,17.57
2023-05-15T10:57:47.670Z,17.57
2023-05-15T11:00:42.554Z,17.46
2023-05-15T11:03:47.816Z,17.60
2023-05-15T11:06:17.151Z,17.91
2023-05-15T11:08:46.086Z,17.55
2023-05-15T11:11:58.431Z,17.63
2023-05-15T11:14:28.748Z,17.94
2023-05-15T11:17:04.338Z,18.28
2023-05-15T11:19:59.630Z,18.31
2023-05-15T11:22:33.067Z,18.49
2023-05-15T11:25:02.120Z,18.93
2023-05-15T11:27:44.387Z,18.74
2023-05-15T11:30:25.444Z,18.49
2023-05-15T11:33:05.315Z,18.64
2023-05-15T11:35:43.335Z,18.88
2023-05-15T11:38:11.335Z,18.71
2023-05-15T11:40:58.765Z,18.80
2023-05-15T11:43:32.092Z,18.53
2023-05-15T11:46:07.829Z,18.82
2023-05-15T11:48:48.011Z,18.88
2023-05-15T11:51:27.874Z,19.00
2023-05-15T11:53:57.185Z,19.23
2023-05-15T11:56:28.637Z,19.16
2023-05-15T11:58:59.681Z,18.58
2023-05-15T12:01:39.778Z,18.77
2023-05-15T12:04:15.926Z,18.86
2023-05-15T12:06:47.612Z,18.94
2023-05-15T12:09:19.360Z,19.40
2023-05-15T12:11:55.995Z,19.32
2023-05-15T12:14:31.658Z,19.14
2023-05-15T12:17:04.697Z,18.74
2023-05-15T12:19:35.163Z,18.76
2023-05-15T12:22:06.572Z,18.81
2023-05-15T12:24:39.940Z,18.99
2023-05-15T12:27:09.143Z,18.79
2023-05-15T12:29:37.689Z,19.10
2023-05-15T12:32:06.068Z,18.97
2023-05-15T12:34:33.946Z,18.90
2023-05-15T12:37:02.999Z,18.73
2023-05-15T12:39:31.186Z,18.64
2023-05-15T12:41:59.263Z,19.05
2023-05-15T12:44:27.512Z,19.49
2023-05-15T12:46:55.859Z,19.48
2023-05-15T12:49:24.053Z,19.58
2023-05-15T12:51:52.036Z,19.33
2023-05-15T12:54:21.443Z,19.46
2023-05-15T12:56:49.980Z,19.35
2023-05-15T12:59:19.278Z,19.43
2023-05-15T13:01:47.365Z,18.91
2023-05-15T13:04:16.796Z,19.04
2023-05-15T13:06:47.851Z,18.45
2023-05-15T13:09:26.598Z,19.13
2023-05-15T13:11:57.464Z,18.98
2023-05-15T13:14:29.192Z,19.34
2023-05-15T13:17:04.146Z,19.67
2023-05-15T13:19:32.252Z,19.56
2023-05-15T13:21:59.706Z,19.37
2023-05-15T13:24:27.876Z,20.07
2023-05-15T13:26:56.112Z,20.17
2023-05-15T13:29:24.034Z,19.99
2023-05-15T13:31:52.188Z,20.06
2023-05-15T13:34:20.166Z,20.64
2023-05-15T13:36:48.198Z,21.33
2023-05-15T13:39:16.174Z,20.69
2023-05-15T13:41:44.274Z,20.83
2023-05-15T13:44:12.241Z,20.07
2023-05-15T13:46:40.308Z,19.85
2023-05-15T13:49:08.272Z,19.43
2023-05-15T13:51:36.231Z,19.43
2023-05-15T13:54:05.231Z,19.42
2023-05-15T13:56:33.279Z,19.66
2023-05-15T13:59:01.421Z,19.85
2023-05-15T14:01:29.588Z,20.01
2023-05-15T14:03:57.682Z,19.61
2023-05-15T14:06:28.106Z,19.31
2023-05-15T14:08:56.311Z,19.25
2023-05-15T14:11:24.289Z,19.43
2023-05-15T14:13:52.201Z,19.89
2023-05-15T14:16:20.185Z,19.39
2023-05-15T14:18:48.424Z,19.30
2023-05-15T14:21:16.412Z,19.33
2023-05-15T14:23:44.476Z,19.11
2023-05-15T14:26:12.414Z,19.27
2023-05-15T14:28:40.386Z,19.33
2023-05-15T14:31:08.499Z,19.06
2023-05-15T14:33:36.535Z,19.15
2023-05-15T14:36:05.830Z,18.95
2023-05-15T14:38:34.012Z,19.26
2023-05-15T14:41:02.017Z,19.04
2023-05-15T14:43:30.243Z,18.95
2023-05-15T14:45:58.367Z,19.04
2023-05-15T14:48:26.561Z,18.95
2023-05-15T14:50:54.515Z,18.84
2023-05-15T14:53:22.540Z,18.70
2023-05-15T14:55:51.590Z,18.65
2023-05-15T14:58:20.844Z,18.49
2023-05-15T15:00:48.974Z,18.59
2023-05-15T15:03:17.257Z,18.30
2023-05-15T15:05:45.582Z,18.35
2023-05-15T15:08:13.735Z,18.20
2023-05-15T15:10:41.497Z,18.16
2023-05-15T15:13:10.330Z,18.21
2023-05-15T15:15:38.320Z,18.02
2023-05-15T15:18:05.986Z,17.93
2023-05-15T15:20:34.326Z,17.80
2023-05-15T15:23:04.270Z,17.83
2023-05-15T15:25:33.621Z,17.93
2023-05-15T15:28:03.055Z,17.75
2023-05-15T15:30:31.225Z,17.98
2023-05-15T15:32:59.362Z,17.88
2023-05-15T15:35:27.540Z,17.69
2023-05-15T15:37:55.587Z,17.69
2023-05-15T15:40:24.638Z,17.70
2023-05-15T15:42:54.360Z,17.60
2023-05-15T15:45:22.578Z,17.49
2023-05-15T15:47:50.694Z,17.54
2023-05-15T15:50:18.878Z,17.53
2023-05-15T15:52:47.071Z,17.48
2023-05-15T15:55:15.246Z,17.49
2023-05-15T15:57:44.071Z,17.56
2023-05-15T16:00:13.042Z,17.53
2023-05-15T16:02:42.184Z,17.54
2023-05-15T16:05:10.433Z,17.66
2023-05-15T16:07:38.514Z,17.58
2023-05-15T16:10:12.338Z,17.48
2023-05-15T16:12:42.520Z,17.50
2023-05-15T16:17:44.656Z,17.40
2023-05-15T16:20:12.164Z,17.27
2023-05-15T16:22:41.891Z,17.14
2023-05-15T16:25:10.453Z,17.06
2023-05-15T16:27:38.641Z,16.99
2023-05-15T16:30:07.951Z,16.99
2023-05-15T16:32:36.374Z,16.87
2023-05-15T16:35:05.183Z,16.99
2023-05-15T16:37:33.297Z,17.20
2023-05-15T16:40:01.484Z,17.21
2023-05-15T16:42:29.639Z,17.05
2023-05-15T16:44:57.751Z,17.11
2023-05-15T16:47:25.050Z,17.14
2023-05-15T16:49:53.211Z,17.06
2023-05-15T16:52:21.461Z,16.93
2023-05-15T16:54:49.654Z,16.69
2023-05-15T16:57:17.781Z,16.87
2023-05-15T16:59:46.288Z,16.73
2023-05-15T17:02:14.955Z,16.64
2023-05-15T17:04:43.146Z,16.72
2023-05-15T17:07:11.301Z,16.67
2023-05-15T17:09:43.217Z,16.57
2023-05-15T17:12:11.470Z,16.41
2023-05-15T17:14:39.591Z,16.34
2023-05-15T17:17:07.761Z,16.43
2023-05-15T17:19:35.887Z,16.38
2023-05-15T17:22:04.193Z,16.35
2023-05-15T17:24:42.693Z,16.40
2023-05-15T17:27:20.140Z,16.28
2023-05-15T17:29:48.578Z,16.31
2023-05-15T17:32:18.014Z,16.44
2023-05-15T17:34:46.581Z,16.28
2023-05-15T17:37:15.074Z,16.16
2023-05-15T17:39:43.713Z,16.09
2023-05-15T17:42:10.965Z,16.29
2023-05-15T17:44:39.464Z,16.39
2023-05-15T17:47:07.091Z,16.31
2023-05-15T17:49:35.204Z,16.42
2023-05-15T17:52:03.312Z,16.27
2023-05-15T17:54:31.504Z,16.14
2023-05-15T17:57:00.404Z,16.23
2023-05-15T17:59:29.385Z,16.02
2023-05-15T18:01:57.913Z,16.06
2023-05-15T18:04:26.967Z,16.13
2023-05-15T18:06:55.196Z,16.16
2023-05-15T18:09:24.630Z,16.03
2023-05-15T18:11:52.388Z,15.89
2023-05-15T18:14:20.703Z,16.02
2023-05-15T18:16:48.862Z,15.99
2023-05-15T18:19:17.153Z,15.99
2023-05-15T18:21:45.366Z,15.93
2023-05-15T18:24:13.509Z,15.83
2023-05-15T18:26:42.433Z,15.64
2023-05-15T18:29:10.578Z,15.72
2023-05-15T18:31:38.729Z,15.80
2023-05-15T18:34:07.010Z,15.72
2023-05-15T18:36:35.162Z,15.71
2023-05-15T18:39:03.559Z,15.78
2023-05-15T18:41:31.757Z,15.71
2023-05-15T18:44:00.009Z,15.58
2023-05-15T18:46:28.627Z,15.49
2023-05-15T18:48:56.914Z,15.42
2023-05-15T18:51:25.125Z,15.45
2023-05-15T18:53:53.376Z,15.47
2023-05-15T18:56:22.493Z,15.37
2023-05-15T18:58:51.076Z,15.36
2023-05-15T19:01:19.338Z,15.51
2023-05-15T19:03:47.584Z,15.63
2023-05-15T19:06:20.330Z,15.45
2023-05-15T19:08:49.063Z,15.42
2023-05-15T19:11:17.475Z,15.45
2023-05-15T19:13:44.735Z,15.31
2023-05-15T19:16:12.970Z,15.26
2023-05-15T19:18:40.330Z,15.27
2023-05-15T19:21:07.766Z,15.26
2023-05-15T19:23:36.132Z,15.18
2023-05-15T19:26:04.224Z,15.41
2023-05-15T19:28:32.398Z,15.27
2023-05-15T19:31:00.560Z,15.30
2023-05-15T19:33:28.759Z,15.19
2023-05-15T19:35:56.950Z,15.21
2023-05-15T19:38:25.082Z,15.07
2023-05-15T19:40:53.300Z,15.19
2023-05-15T19:43:21.434Z,15.04
2023-05-15T19:45:49.615Z,15.07
2023-05-15T19:48:17.797Z,14.94
2023-05-15T19:50:46.288Z,15.12
2023-05-15T19:53:14.472Z,15.07
2023-05-15T19:55:44.184Z,14.93
2023-05-15T19:58:11.550Z,15.04
2023-05-15T20:00:38.904Z,15.10
2023-05-15T20:03:07.190Z,14.91
2023-05-15T20:05:41.247Z,14.99
2023-05-15T20:08:09.478Z,14.93
2023-05-15T20:10:37.699Z,15.03
2023-05-15T20:13:05.049Z,14.99
2023-05-15T20:15:33.593Z,15.03
2023-05-15T20:18:01.966Z,15.03
2023-05-15T20:20:30.204Z,15.05
2023-05-15T20:22:58.764Z,14.97
2023-05-15T20:25:29.289Z,14.85
2023-05-15T20:27:58.838Z,14.99
2023-05-15T20:30:28.525Z,14.93
2023-05-15T20:32:56.969Z,15.02
2023-05-15T20:35:25.490Z,15.07
2023-05-15T20:37:53.909Z,15.00
2023-05-15T20:40:23.208Z,14.77
2023-05-15T20:42:53.058Z,14.93
2023-05-15T20:45:21.411Z,15.10
2023-05-15T20:47:50.845Z,15.00
2023-05-15T20:50:19.113Z,14.95
2023-05-15T20:52:47.409Z,14.79
2023-05-15T20:55:17.321Z,14.95
2023-05-15T20:57:48.389Z,15.10
2023-05-15T21:00:18.500Z,15.08
2023-05-15T21:02:47.619Z,14.85
2023-05-15T21:05:16.305Z,14.75
2023-05-15T21:07:44.593Z,14.67
2023-05-15T21:10:12.816Z,14.61
2023-05-15T21:12:41.053Z,14.65
2023-05-15T21:15:10.197Z,14.68
2023-05-15T21:17:40.056Z,14.78
2023-05-15T21:20:09.673Z,14.80
2023-05-15T21:22:38.075Z,14.83
2023-05-15T21:25:07.632Z,14.91
2023-05-15T21:27:35.768Z,14.85
2023-05-15T21:30:04.408Z,14.94
2023-05-15T21:32:33.381Z,14.96
2023-05-15T21:35:01.614Z,14.77
2023-05-15T21:37:29.802Z,14.76
2023-05-15T21:39:58.020Z,14.75
2023-05-15T21:42:26.669Z,14.90
2023-05-15T21:44:54.899Z,14.78
2023-05-15T21:47:23.077Z,14.81
2023-05-15T21:49:51.337Z,14.64
2023-05-15T21:52:20.352Z,14.76
2023-05-15T21:54:47.648Z,14.85
2023-05-15T21:57:15.866Z,14.84
2023-05-15T21:59:44.051Z,14.80
2023-05-15T22:02:12.251Z,14.80
2023-05-15T22:04:40.422Z,14.80
2023-05-15T22:07:10.026Z,14.79
2023-05-15T22:09:38.176Z,14.80
2023-05-15T22:12:07.189Z,14.80
2023-05-15T22:14:37.686Z,14.80
2023-05-15T22:17:05.982Z,14.84
2023-05-15T22:19:35.365Z,14.86
2023-05-15T22:22:04.605Z,14.83
2023-05-15T22:24:32.760Z,14.68
2023-05-15T22:27:00.908Z,14.65
2023-05-15T22:29:29.064Z,14.74
2023-05-15T22:31:58.159Z,14.76
2023-05-15T22:34:29.120Z,14.80
2023-05-15T22:36:57.340Z,14.81
2023-05-15T22:39:25.697Z,14.77
2023-05-15T22:41:53.887Z,14.72
2023-05-15T22:44:22.309Z,14.78
2023-05-15T22:46:50.849Z,14.70
2023-05-15T22:49:25.671Z,14.71
2023-05-15T22:51:58.284Z,14.66
2023-05-15T22:55:03.441Z,14.77
2023-05-15T22:57:31.721Z,14.81
2023-05-15T23:00:00.731Z,14.77
2023-05-15T23:02:28.878Z,14.95
2023-05-15T23:04:57.145Z,14.83
2023-05-15T23:07:25.306Z,14.78
2023-05-15T23:09:53.465Z,14.68
2023-05-15T23:12:21.672Z,14.78
2023-05-15T23:14:49.881Z,14.71
2023-05-15T23:17:18.109Z,14.74
2023-05-15T23:19:46.765Z,14.73
2023-05-15T23:22:14.934Z,14.76
2023-05-15T23:24:43.085Z,14.82
2023-05-15T23:27:13.109Z,14.88
2023-05-15T23:29:41.294Z,14.84
2023-05-15T23:32:09.528Z,14.78
2023-05-15T23:34:38.534Z,14.79
2023-05-15T23:37:06.847Z,14.80
2023-05-15T23:39:36.331Z,14.80
2023-05-15T23:42:04.806Z,14.80
2023-05-15T23:44:33.001Z,14.74
2023-05-15T23:47:01.257Z,14.75
2023-05-15T23:49:29.495Z,14.64
2023-05-15T23:51:57.653Z,14.64
2023-05-15T23:54:26.632Z,14.66
2023-05-15T23:56:55.004Z,14.54
2023-05-15T23:59:23.188Z,14.63
